BAW8648 LHBP-LWSK
Flight info
| Callsign | BAW8648 |
|---|---|
| Flight time | 1h 0m |
| Altitude | 35000 |
| Route | FAHAZ2L FAHAZ DCT KEROP DCT REDVA UL616 KOGAT KOGAT1A |
| Aircraft | A21N/M-SDE3FGIJ1LRWXYZ/SB1G1 |
Departure
| Time | 2026-04-24 11:09 |
|---|---|
| Airport | Budapest Liszt Ferenc International Airport (LHBP) |
Arrival
| Time | 2026-04-24 12:09 |
|---|---|
| Airport | Skopje International Airport (LWSK) |
| Time | Latitude | Longitude | Altitude | Speed | Heading |
|---|---|---|---|---|---|
| 2026-04-24 10:54 | 47.43144 | 19.25927 | 463 ft | 0 kts | 42° |
| 2026-04-24 10:58 | 47.43143 | 19.25926 | 463 ft | 2 kts | 42° |
| 2026-04-24 10:58 | 47.43124 | 19.25902 | 463 ft | 4 kts | 34° |
| 2026-04-24 10:59 | 47.43101 | 19.25883 | 463 ft | 4 kts | 20° |
| 2026-04-24 10:59 | 47.43076 | 19.25876 | 463 ft | 4 kts | 347° |
| 2026-04-24 10:59 | 47.43061 | 19.25887 | 461 ft | 1 kts | 313° |
| 2026-04-24 10:59 | 47.43059 | 19.25890 | 463 ft | 0 kts | 313° |
| 2026-04-24 11:03 | 47.43068 | 19.25875 | 463 ft | 3 kts | 312° |
| 2026-04-24 11:03 | 47.43089 | 19.25841 | 460 ft | 6 kts | 312° |
| 2026-04-24 11:03 | 47.43122 | 19.25788 | 463 ft | 8 kts | 313° |
| 2026-04-24 11:03 | 47.43166 | 19.25717 | 463 ft | 11 kts | 313° |
| 2026-04-24 11:04 | 47.43222 | 19.25627 | 463 ft | 13 kts | 312° |
| 2026-04-24 11:04 | 47.43284 | 19.25527 | 463 ft | 13 kts | 312° |
| 2026-04-24 11:04 | 47.43337 | 19.25440 | 463 ft | 11 kts | 305° |
| 2026-04-24 11:04 | 47.43317 | 19.25351 | 461 ft | 11 kts | 221° |
| 2026-04-24 11:05 | 47.43254 | 19.25268 | 460 ft | 13 kts | 222° |
| 2026-04-24 11:05 | 47.43186 | 19.25176 | 462 ft | 14 kts | 222° |
| 2026-04-24 11:05 | 47.43151 | 19.25129 | 463 ft | 2 kts | 222° |
| 2026-04-24 11:05 | 47.43149 | 19.25126 | 463 ft | 0 kts | 222° |
| 2026-04-24 11:07 | 47.43118 | 19.25085 | 463 ft | 6 kts | 221° |
| 2026-04-24 11:07 | 47.43080 | 19.25035 | 462 ft | 8 kts | 225° |
| 2026-04-24 11:07 | 47.43093 | 19.24953 | 461 ft | 10 kts | 311° |
| 2026-04-24 11:08 | 47.43144 | 19.24869 | 461 ft | 12 kts | 312° |
| 2026-04-24 11:08 | 47.43253 | 19.24693 | 461 ft | 52 kts | 312° |
| 2026-04-24 11:08 | 47.43662 | 19.24034 | 458 ft | 118 kts | 312° |
| 2026-04-24 11:08 | 47.44339 | 19.22945 | 462 ft | 166 kts | 312° |
| 2026-04-24 11:09 | 47.45112 | 19.21706 | 1099 ft | 157 kts | 313° |
| 2026-04-24 11:09 | 47.45833 | 19.20533 | 1838 ft | 154 kts | 311° |
| 2026-04-24 11:09 | 47.46565 | 19.19316 | 2338 ft | 164 kts | 312° |
| 2026-04-24 11:09 | 47.47370 | 19.18000 | 2801 ft | 182 kts | 311° |
| 2026-04-24 11:10 | 47.48268 | 19.16529 | 3278 ft | 206 kts | 309° |
| 2026-04-24 11:10 | 47.48915 | 19.14487 | 3600 ft | 237 kts | 278° |
| 2026-04-24 11:10 | 47.48707 | 19.11984 | 4116 ft | 256 kts | 252° |
| 2026-04-24 11:10 | 47.48011 | 19.09556 | 4939 ft | 263 kts | 240° |
| 2026-04-24 11:11 | 47.46707 | 19.07651 | 5767 ft | 270 kts | 211° |
| 2026-04-24 11:11 | 47.44992 | 19.06471 | 6634 ft | 275 kts | 205° |
| 2026-04-24 11:11 | 47.43217 | 19.05349 | 7480 ft | 279 kts | 205° |
| 2026-04-24 11:11 | 47.41424 | 19.04176 | 8312 ft | 284 kts | 206° |
| 2026-04-24 11:12 | 47.39611 | 19.02950 | 9128 ft | 289 kts | 207° |
| 2026-04-24 11:12 | 47.37769 | 19.01688 | 9925 ft | 294 kts | 207° |
| 2026-04-24 11:12 | 47.35874 | 19.00379 | 10474 ft | 310 kts | 208° |
| 2026-04-24 11:12 | 47.33849 | 18.98972 | 10818 ft | 332 kts | 208° |
| 2026-04-24 11:13 | 47.31690 | 18.97472 | 11132 ft | 354 kts | 207° |
| 2026-04-24 11:13 | 47.29404 | 18.95909 | 11578 ft | 368 kts | 207° |
| 2026-04-24 11:13 | 47.27057 | 18.94310 | 12268 ft | 374 kts | 207° |
| 2026-04-24 11:13 | 47.24678 | 18.92691 | 12969 ft | 379 kts | 207° |
| 2026-04-24 11:14 | 47.22267 | 18.91052 | 13646 ft | 384 kts | 207° |
| 2026-04-24 11:14 | 47.19823 | 18.89383 | 14306 ft | 390 kts | 207° |
| 2026-04-24 11:14 | 47.18188 | 18.88266 | 14735 ft | 393 kts | 207° |
| 2026-04-24 11:14 | 47.15692 | 18.86565 | 15364 ft | 398 kts | 207° |
| 2026-04-24 11:15 | 47.13092 | 18.85076 | 15969 ft | 405 kts | 196° |
| 2026-04-24 11:15 | 47.10284 | 18.84614 | 16554 ft | 411 kts | 177° |
| 2026-04-24 11:15 | 47.07474 | 18.85394 | 17122 ft | 413 kts | 159° |
| 2026-04-24 11:15 | 47.04200 | 18.88169 | 17877 ft | 412 kts | 139° |
| 2026-04-24 11:16 | 47.02683 | 18.89939 | 18270 ft | 414 kts | 138° |
| 2026-04-24 11:16 | 47.00416 | 18.92575 | 18838 ft | 418 kts | 139° |
| 2026-04-24 11:16 | 46.98088 | 18.95153 | 19400 ft | 421 kts | 140° |
| 2026-04-24 11:16 | 46.95712 | 18.97688 | 19945 ft | 425 kts | 141° |
| 2026-04-24 11:17 | 46.93328 | 19.00188 | 20469 ft | 428 kts | 141° |
| 2026-04-24 11:17 | 46.90901 | 19.02726 | 20993 ft | 431 kts | 141° |
| 2026-04-24 11:17 | 46.88434 | 19.05254 | 21512 ft | 435 kts | 143° |
| 2026-04-24 11:17 | 46.85876 | 19.07658 | 22021 ft | 438 kts | 144° |
| 2026-04-24 11:18 | 46.83299 | 19.10061 | 22516 ft | 441 kts | 144° |
| 2026-04-24 11:18 | 46.80699 | 19.12487 | 23000 ft | 444 kts | 144° |
| 2026-04-24 11:18 | 46.78084 | 19.14915 | 23473 ft | 447 kts | 144° |
| 2026-04-24 11:18 | 46.75443 | 19.17362 | 23921 ft | 450 kts | 144° |
| 2026-04-24 11:19 | 46.72790 | 19.19826 | 24381 ft | 453 kts | 144° |
| 2026-04-24 11:19 | 46.70123 | 19.22300 | 24823 ft | 456 kts | 144° |
| 2026-04-24 11:19 | 46.67472 | 19.24757 | 25255 ft | 458 kts | 144° |
| 2026-04-24 11:19 | 46.64778 | 19.27249 | 25672 ft | 461 kts | 144° |
| 2026-04-24 11:20 | 46.62060 | 19.29761 | 26089 ft | 463 kts | 143° |
| 2026-04-24 11:20 | 46.59339 | 19.32273 | 26496 ft | 465 kts | 143° |
| 2026-04-24 11:20 | 46.56598 | 19.34799 | 26880 ft | 467 kts | 143° |
| 2026-04-24 11:20 | 46.53850 | 19.37329 | 27246 ft | 469 kts | 143° |
| 2026-04-24 11:21 | 46.51079 | 19.39878 | 27600 ft | 472 kts | 143° |
| 2026-04-24 11:21 | 46.48299 | 19.42434 | 27952 ft | 474 kts | 143° |
| 2026-04-24 11:21 | 46.45513 | 19.44990 | 28300 ft | 475 kts | 143° |
| 2026-04-24 11:21 | 46.42709 | 19.47562 | 28622 ft | 477 kts | 143° |
| 2026-04-24 11:22 | 46.39891 | 19.50141 | 28935 ft | 479 kts | 143° |
| 2026-04-24 11:22 | 46.37062 | 19.52725 | 29246 ft | 481 kts | 143° |
| 2026-04-24 11:22 | 46.34232 | 19.55307 | 29659 ft | 480 kts | 143° |
| 2026-04-24 11:22 | 46.31412 | 19.57877 | 30056 ft | 478 kts | 142° |
| 2026-04-24 11:23 | 46.28587 | 19.60448 | 30419 ft | 478 kts | 142° |
| 2026-04-24 11:23 | 46.25809 | 19.62977 | 30805 ft | 477 kts | 142° |
| 2026-04-24 11:23 | 46.23003 | 19.65527 | 31177 ft | 476 kts | 142° |
| 2026-04-24 11:23 | 46.20183 | 19.68036 | 31529 ft | 477 kts | 145° |
| 2026-04-24 11:24 | 46.17137 | 19.69996 | 31859 ft | 484 kts | 158° |
| 2026-04-24 11:24 | 46.13867 | 19.71213 | 32193 ft | 487 kts | 164° |
| 2026-04-24 11:24 | 46.10528 | 19.72148 | 32506 ft | 487 kts | 165° |
| 2026-04-24 11:24 | 46.07199 | 19.73052 | 32802 ft | 487 kts | 165° |
| 2026-04-24 11:25 | 46.03876 | 19.73988 | 33110 ft | 486 kts | 165° |
| 2026-04-24 11:25 | 46.00562 | 19.74950 | 33391 ft | 485 kts | 164° |
| 2026-04-24 11:25 | 45.97258 | 19.75922 | 33692 ft | 484 kts | 164° |
| 2026-04-24 11:25 | 45.93964 | 19.76894 | 33983 ft | 483 kts | 164° |
| 2026-04-24 11:26 | 45.90675 | 19.77861 | 34231 ft | 482 kts | 164° |
| 2026-04-24 11:26 | 45.87387 | 19.78824 | 34443 ft | 482 kts | 164° |
| 2026-04-24 11:26 | 45.84099 | 19.79787 | 34675 ft | 482 kts | 164° |
| 2026-04-24 11:26 | 45.80812 | 19.80750 | 34890 ft | 482 kts | 164° |
| 2026-04-24 11:27 | 45.77573 | 19.81697 | 35067 ft | 483 kts | 165° |
| 2026-04-24 11:27 | 45.74278 | 19.82659 | 35101 ft | 482 kts | 165° |
| 2026-04-24 11:27 | 45.67716 | 19.84573 | 35077 ft | 480 kts | 165° |
| 2026-04-24 11:28 | 45.61170 | 19.86475 | 35067 ft | 480 kts | 165° |
| 2026-04-24 11:28 | 45.54627 | 19.88373 | 35070 ft | 480 kts | 165° |
| 2026-04-24 11:29 | 45.48080 | 19.90268 | 35068 ft | 479 kts | 164° |
| 2026-04-24 11:29 | 45.41551 | 19.92152 | 35074 ft | 479 kts | 164° |
| 2026-04-24 11:30 | 45.35023 | 19.94037 | 35079 ft | 478 kts | 164° |
| 2026-04-24 11:30 | 45.28503 | 19.95914 | 35079 ft | 478 kts | 164° |
| 2026-04-24 11:31 | 45.21987 | 19.97783 | 35083 ft | 477 kts | 164° |
| 2026-04-24 11:31 | 45.15484 | 19.99644 | 35082 ft | 476 kts | 164° |
| 2026-04-24 11:32 | 45.08977 | 20.01501 | 35077 ft | 478 kts | 164° |
| 2026-04-24 11:32 | 45.02494 | 20.03343 | 35079 ft | 478 kts | 164° |
| 2026-04-24 11:33 | 44.95972 | 20.05195 | 35081 ft | 478 kts | 164° |
| 2026-04-24 11:33 | 44.89461 | 20.07041 | 35087 ft | 477 kts | 164° |
| 2026-04-24 11:34 | 44.82956 | 20.08883 | 35084 ft | 476 kts | 164° |
| 2026-04-24 11:34 | 44.76464 | 20.10702 | 35082 ft | 476 kts | 164° |
| 2026-04-24 11:35 | 44.69962 | 20.12537 | 35081 ft | 476 kts | 164° |
| 2026-04-24 11:35 | 44.63477 | 20.14360 | 35077 ft | 475 kts | 164° |
| 2026-04-24 11:36 | 44.56997 | 20.16174 | 35076 ft | 475 kts | 164° |
| 2026-04-24 11:36 | 44.50528 | 20.17983 | 35078 ft | 474 kts | 164° |
| 2026-04-24 11:37 | 44.44110 | 20.19771 | 35072 ft | 473 kts | 163° |
| 2026-04-24 11:37 | 44.37656 | 20.21566 | 35095 ft | 473 kts | 163° |
| 2026-04-24 11:38 | 44.31214 | 20.23354 | 35084 ft | 472 kts | 163° |
| 2026-04-24 11:38 | 44.24761 | 20.25143 | 35094 ft | 472 kts | 163° |
| 2026-04-24 11:39 | 44.18319 | 20.26925 | 35088 ft | 472 kts | 163° |
| 2026-04-24 11:39 | 44.11869 | 20.28699 | 35078 ft | 472 kts | 163° |
| 2026-04-24 11:40 | 44.05421 | 20.30471 | 35088 ft | 472 kts | 163° |
| 2026-04-24 11:40 | 43.98973 | 20.32240 | 35079 ft | 472 kts | 163° |
| 2026-04-24 11:41 | 43.92533 | 20.34004 | 35086 ft | 471 kts | 163° |
| 2026-04-24 11:41 | 43.86097 | 20.35762 | 35079 ft | 471 kts | 163° |
| 2026-04-24 11:42 | 43.79656 | 20.37517 | 35084 ft | 471 kts | 164° |
| 2026-04-24 11:42 | 43.73265 | 20.39255 | 35078 ft | 471 kts | 164° |
| 2026-04-24 11:43 | 43.66831 | 20.41000 | 35083 ft | 471 kts | 164° |
| 2026-04-24 11:43 | 43.60398 | 20.42741 | 35082 ft | 471 kts | 164° |
| 2026-04-24 11:44 | 43.53953 | 20.44481 | 35087 ft | 471 kts | 164° |
| 2026-04-24 11:44 | 43.47504 | 20.46220 | 35076 ft | 472 kts | 164° |
| 2026-04-24 11:45 | 43.41054 | 20.47958 | 35080 ft | 472 kts | 164° |
| 2026-04-24 11:45 | 43.34598 | 20.49693 | 35066 ft | 472 kts | 165° |
| 2026-04-24 11:46 | 43.28190 | 20.51410 | 35048 ft | 472 kts | 165° |
| 2026-04-24 11:46 | 43.21736 | 20.53145 | 35054 ft | 471 kts | 164° |
| 2026-04-24 11:47 | 43.18643 | 20.54492 | 35054 ft | 463 kts | 149° |
| 2026-04-24 11:47 | 43.15898 | 20.56727 | 35062 ft | 456 kts | 141° |
| 2026-04-24 11:47 | 43.10662 | 20.61567 | 35055 ft | 451 kts | 141° |
| 2026-04-24 11:48 | 43.05411 | 20.66277 | 35043 ft | 452 kts | 142° |
| 2026-04-24 11:48 | 43.02783 | 20.68602 | 34398 ft | 452 kts | 142° |
| 2026-04-24 11:48 | 43.00130 | 20.70944 | 33654 ft | 455 kts | 142° |
| 2026-04-24 11:49 | 42.97465 | 20.73293 | 32963 ft | 456 kts | 142° |
| 2026-04-24 11:49 | 42.94793 | 20.75645 | 32296 ft | 457 kts | 142° |
| 2026-04-24 11:49 | 42.92119 | 20.77995 | 31646 ft | 458 kts | 142° |
| 2026-04-24 11:49 | 42.89438 | 20.80349 | 31045 ft | 457 kts | 143° |
| 2026-04-24 11:50 | 42.86768 | 20.82689 | 30474 ft | 455 kts | 143° |
| 2026-04-24 11:50 | 42.84111 | 20.85020 | 29890 ft | 454 kts | 143° |
| 2026-04-24 11:50 | 42.81460 | 20.87343 | 29303 ft | 453 kts | 143° |
| 2026-04-24 11:50 | 42.78847 | 20.89632 | 28721 ft | 451 kts | 143° |
| 2026-04-24 11:51 | 42.76208 | 20.91938 | 28132 ft | 450 kts | 143° |
| 2026-04-24 11:51 | 42.73582 | 20.94231 | 27571 ft | 448 kts | 143° |
| 2026-04-24 11:51 | 42.70959 | 20.96518 | 26982 ft | 446 kts | 144° |
| 2026-04-24 11:51 | 42.68350 | 20.98790 | 26381 ft | 445 kts | 144° |
| 2026-04-24 11:52 | 42.65744 | 21.01058 | 25797 ft | 443 kts | 144° |
| 2026-04-24 11:52 | 42.63155 | 21.03310 | 25226 ft | 440 kts | 144° |
| 2026-04-24 11:52 | 42.60585 | 21.05543 | 24630 ft | 438 kts | 144° |
| 2026-04-24 11:52 | 42.58024 | 21.07767 | 24035 ft | 436 kts | 144° |
| 2026-04-24 11:53 | 42.55470 | 21.09982 | 23462 ft | 432 kts | 144° |
| 2026-04-24 11:53 | 42.52981 | 21.12139 | 22904 ft | 427 kts | 144° |
| 2026-04-24 11:53 | 42.50488 | 21.14295 | 22328 ft | 422 kts | 144° |
| 2026-04-24 11:53 | 42.48026 | 21.16424 | 21751 ft | 418 kts | 144° |
| 2026-04-24 11:54 | 42.45589 | 21.18532 | 21182 ft | 414 kts | 144° |
| 2026-04-24 11:54 | 42.43172 | 21.20618 | 20625 ft | 410 kts | 144° |
| 2026-04-24 11:54 | 42.40778 | 21.22682 | 20090 ft | 405 kts | 144° |
| 2026-04-24 11:54 | 42.38417 | 21.24716 | 19588 ft | 400 kts | 144° |
| 2026-04-24 11:55 | 42.36085 | 21.26723 | 19095 ft | 395 kts | 145° |
| 2026-04-24 11:55 | 42.33784 | 21.28701 | 18619 ft | 389 kts | 145° |
| 2026-04-24 11:55 | 42.31510 | 21.30655 | 18169 ft | 384 kts | 145° |
| 2026-04-24 11:55 | 42.29269 | 21.32578 | 17728 ft | 381 kts | 145° |
| 2026-04-24 11:56 | 42.27022 | 21.34505 | 17268 ft | 382 kts | 145° |
| 2026-04-24 11:56 | 42.24774 | 21.36435 | 16804 ft | 383 kts | 145° |
| 2026-04-24 11:56 | 42.22523 | 21.38362 | 16354 ft | 383 kts | 145° |
| 2026-04-24 11:56 | 42.20268 | 21.40290 | 15892 ft | 384 kts | 145° |
| 2026-04-24 11:57 | 42.18016 | 21.42213 | 15447 ft | 383 kts | 145° |
| 2026-04-24 11:57 | 42.15769 | 21.44131 | 14996 ft | 382 kts | 145° |
| 2026-04-24 11:57 | 42.13556 | 21.46019 | 14554 ft | 380 kts | 145° |
| 2026-04-24 11:57 | 42.11332 | 21.47916 | 14107 ft | 376 kts | 145° |
| 2026-04-24 11:58 | 42.09140 | 21.49784 | 13657 ft | 370 kts | 145° |
| 2026-04-24 11:58 | 42.06982 | 21.51621 | 13216 ft | 363 kts | 145° |
| 2026-04-24 11:58 | 42.04864 | 21.53423 | 12807 ft | 357 kts | 145° |
| 2026-04-24 11:58 | 42.02779 | 21.55195 | 12403 ft | 351 kts | 145° |
| 2026-04-24 11:59 | 42.00731 | 21.56934 | 12009 ft | 346 kts | 145° |
| 2026-04-24 11:59 | 41.98694 | 21.58662 | 11601 ft | 347 kts | 145° |
| 2026-04-24 11:59 | 41.96653 | 21.60394 | 11189 ft | 347 kts | 146° |
| 2026-04-24 11:59 | 41.94615 | 21.62120 | 10833 ft | 343 kts | 146° |
| 2026-04-24 12:00 | 41.92548 | 21.63651 | 10610 ft | 335 kts | 154° |
| 2026-04-24 12:00 | 41.90482 | 21.64979 | 10379 ft | 324 kts | 152° |
| 2026-04-24 12:00 | 41.88515 | 21.66327 | 10115 ft | 311 kts | 151° |
| 2026-04-24 12:00 | 41.86651 | 21.67622 | 9817 ft | 301 kts | 151° |
| 2026-04-24 12:01 | 41.84812 | 21.68910 | 9339 ft | 297 kts | 151° |
| 2026-04-24 12:01 | 41.82986 | 21.70210 | 8846 ft | 295 kts | 148° |
| 2026-04-24 12:01 | 41.81287 | 21.71730 | 8351 ft | 293 kts | 144° |
| 2026-04-24 12:01 | 41.79732 | 21.73462 | 7838 ft | 289 kts | 131° |
| 2026-04-24 12:02 | 41.78487 | 21.75557 | 7344 ft | 286 kts | 127° |
| 2026-04-24 12:02 | 41.77012 | 21.77305 | 6805 ft | 285 kts | 154° |
| 2026-04-24 12:02 | 41.75101 | 21.77851 | 6262 ft | 283 kts | 185° |
| 2026-04-24 12:02 | 41.73273 | 21.77042 | 5727 ft | 277 kts | 217° |
| 2026-04-24 12:03 | 41.72033 | 21.75144 | 5193 ft | 271 kts | 244° |
| 2026-04-24 12:03 | 41.71399 | 21.72817 | 4788 ft | 261 kts | 264° |
| 2026-04-24 12:03 | 41.71397 | 21.71243 | 4602 ft | 254 kts | 281° |
| 2026-04-24 12:03 | 41.72049 | 21.69087 | 4515 ft | 250 kts | 308° |
| 2026-04-24 12:04 | 41.73407 | 21.67737 | 4439 ft | 242 kts | 342° |
| 2026-04-24 12:04 | 41.75064 | 21.67465 | 4077 ft | 239 kts | 1° |
| 2026-04-24 12:04 | 41.76701 | 21.67554 | 4011 ft | 232 kts | 3° |
| 2026-04-24 12:04 | 41.78271 | 21.67618 | 3867 ft | 222 kts | 357° |
| 2026-04-24 12:05 | 41.79772 | 21.67381 | 3719 ft | 212 kts | 352° |
| 2026-04-24 12:05 | 41.81217 | 21.67144 | 3471 ft | 207 kts | 352° |
| 2026-04-24 12:05 | 41.82568 | 21.66849 | 3455 ft | 185 kts | 349° |
| 2026-04-24 12:05 | 41.83773 | 21.66451 | 3393 ft | 172 kts | 345° |
| 2026-04-24 12:06 | 41.84903 | 21.66046 | 3185 ft | 164 kts | 345° |
| 2026-04-24 12:06 | 41.85985 | 21.65667 | 2934 ft | 159 kts | 346° |
| 2026-04-24 12:06 | 41.87057 | 21.65294 | 2664 ft | 159 kts | 346° |
| 2026-04-24 12:06 | 41.88147 | 21.64936 | 2471 ft | 162 kts | 346° |
| 2026-04-24 12:07 | 41.89152 | 21.64597 | 2302 ft | 141 kts | 345° |
| 2026-04-24 12:07 | 41.90096 | 21.64268 | 2047 ft | 140 kts | 345° |
| 2026-04-24 12:07 | 41.91034 | 21.63932 | 1807 ft | 139 kts | 346° |
| 2026-04-24 12:07 | 41.91960 | 21.63616 | 1568 ft | 139 kts | 346° |
| 2026-04-24 12:08 | 41.92897 | 21.63296 | 1346 ft | 139 kts | 345° |
| 2026-04-24 12:08 | 41.93829 | 21.62965 | 1093 ft | 139 kts | 345° |
| 2026-04-24 12:08 | 41.94760 | 21.62631 | 879 ft | 139 kts | 346° |
| 2026-04-24 12:08 | 41.95663 | 21.62311 | 790 ft | 120 kts | 346° |
| 2026-04-24 12:09 | 41.96270 | 21.62107 | 794 ft | 62 kts | 346° |
| 2026-04-24 12:09 | 41.96482 | 21.62046 | 796 ft | 12 kts | 26° |
| 2026-04-24 12:09 | 41.96506 | 21.62132 | 797 ft | 9 kts | 76° |
| 2026-04-24 12:09 | 41.96523 | 21.62216 | 798 ft | 5 kts | 76° |
| 2026-04-24 12:10 | 41.96519 | 21.62267 | 798 ft | 7 kts | 120° |
| 2026-04-24 12:10 | 41.96473 | 21.62302 | 798 ft | 9 kts | 166° |
| 2026-04-24 12:10 | 41.96405 | 21.62325 | 798 ft | 11 kts | 165° |
| 2026-04-24 12:11 | 41.96225 | 21.62388 | 797 ft | 15 kts | 165° |
| 2026-04-24 12:11 | 41.96144 | 21.62418 | 797 ft | 6 kts | 163° |
| 2026-04-24 12:11 | 41.96124 | 21.62465 | 798 ft | 6 kts | 81° |
| 2026-04-24 12:11 | 41.96134 | 21.62515 | 798 ft | 5 kts | 75° |
| 2026-04-24 12:12 | 41.96141 | 21.62551 | 798 ft | 1 kts | 75° |
| 2026-04-24 12:12 | 41.96143 | 21.62559 | 798 ft | 0 kts | 75° |